createdAt,value
2019-05-11T00:00:59.043Z,11.45
2019-05-11T00:03:29.806Z,11.43
2019-05-11T00:06:00.581Z,11.41
2019-05-11T00:08:31.284Z,11.43
2019-05-11T00:11:01.932Z,11.45
2019-05-11T00:13:33.045Z,11.46
2019-05-11T00:16:04.087Z,11.45
2019-05-11T00:18:34.852Z,11.34
2019-05-11T00:21:05.839Z,11.39
2019-05-11T00:23:36.885Z,11.38
2019-05-11T00:26:08.642Z,11.41
2019-05-11T00:28:39.655Z,11.40
2019-05-11T00:31:10.347Z,11.42
2019-05-11T00:33:42.169Z,11.48
2019-05-11T00:36:13.195Z,11.44
2019-05-11T00:38:43.864Z,11.32
2019-05-11T00:41:14.967Z,11.25
2019-05-11T00:43:45.648Z,11.31
2019-05-11T00:46:16.314Z,11.24
2019-05-11T00:48:47.011Z,11.19
2019-05-11T00:51:18.019Z,11.14
2019-05-11T00:53:49.053Z,11.06
2019-05-11T00:56:20.098Z,11.12
2019-05-11T00:58:51.105Z,11.17
2019-05-11T01:01:22.100Z,11.29
2019-05-11T01:03:53.016Z,11.38
2019-05-11T01:06:23.729Z,11.34
2019-05-11T01:08:54.370Z,11.29
2019-05-11T01:11:44.407Z,11.20
2019-05-11T01:14:15.073Z,11.20
2019-05-11T01:16:45.754Z,11.22
2019-05-11T01:19:16.789Z,11.13
2019-05-11T01:21:47.483Z,11.03
2019-05-11T01:24:18.546Z,11.09
2019-05-11T01:26:50.091Z,11.02
2019-05-11T01:29:20.943Z,11.09
2019-05-11T01:31:51.976Z,11.14
2019-05-11T01:34:22.675Z,11.21
2019-05-11T01:36:53.732Z,11.09
2019-05-11T01:39:24.468Z,10.98
2019-05-11T01:41:55.135Z,10.86
2019-05-11T01:44:26.248Z,10.82
2019-05-11T01:46:56.918Z,10.73
2019-05-11T01:49:27.640Z,10.73
2019-05-11T01:51:58.305Z,10.72
2019-05-11T01:54:29.007Z,10.57
2019-05-11T01:56:59.700Z,10.54
2019-05-11T01:59:30.419Z,10.49
2019-05-11T02:02:01.391Z,10.42
2019-05-11T02:04:32.066Z,10.32
2019-05-11T02:07:02.775Z,10.34
2019-05-11T02:09:33.764Z,10.20
2019-05-11T02:12:04.494Z,10.21
2019-05-11T02:14:35.167Z,10.19
2019-05-11T02:17:05.853Z,10.16
2019-05-11T02:19:37.225Z,10.19
2019-05-11T02:22:07.909Z,10.19
2019-05-11T02:24:38.883Z,10.22
2019-05-11T02:27:09.561Z,10.22
2019-05-11T02:29:41.586Z,10.25
2019-05-11T02:32:12.932Z,10.21
2019-05-11T02:34:43.965Z,10.23
2019-05-11T02:37:14.710Z,10.17
2019-05-11T02:39:45.419Z,10.11
2019-05-11T02:42:16.501Z,10.10
2019-05-11T02:44:47.224Z,10.11
2019-05-11T02:47:18.284Z,10.02
2019-05-11T02:49:49.013Z,9.88
2019-05-11T02:52:20.517Z,9.78
2019-05-11T02:54:53.939Z,9.72
2019-05-11T02:57:24.936Z,9.62
2019-05-11T02:59:55.884Z,9.63
2019-05-11T03:02:27.938Z,9.64
2019-05-11T03:04:58.663Z,9.60
2019-05-11T03:07:29.314Z,9.63
2019-05-11T03:10:00.030Z,9.59
2019-05-11T03:12:30.671Z,9.63
2019-05-11T03:15:01.349Z,9.70
2019-05-11T03:17:33.877Z,9.69
2019-05-11T03:20:05.889Z,9.74
2019-05-11T03:22:36.899Z,9.61
2019-05-11T03:25:07.729Z,9.55
2019-05-11T03:27:38.408Z,9.59
2019-05-11T03:30:09.792Z,9.55
2019-05-11T03:32:40.795Z,9.53
2019-05-11T03:35:11.761Z,9.52
2019-05-11T03:37:42.439Z,9.36
2019-05-11T03:40:14.317Z,9.34
2019-05-11T03:42:45.071Z,9.34
2019-05-11T03:45:16.278Z,9.38
2019-05-11T03:47:46.974Z,9.40
2019-05-11T03:50:18.444Z,9.37
2019-05-11T03:52:49.435Z,9.46
2019-05-11T03:55:20.118Z,9.52
2019-05-11T03:57:51.332Z,9.59
2019-05-11T04:00:23.146Z,9.57
2019-05-11T04:02:53.787Z,9.50
2019-05-11T04:05:24.765Z,9.64
2019-05-11T04:07:55.802Z,9.63
2019-05-11T04:10:26.839Z,9.74
2019-05-11T04:12:58.801Z,9.93
2019-05-11T04:15:29.476Z,9.95
2019-05-11T04:18:00.170Z,9.83
2019-05-11T04:20:30.833Z,9.84
2019-05-11T04:23:01.515Z,9.86
2019-05-11T04:25:32.940Z,9.95
2019-05-11T04:28:03.614Z,10.26
2019-05-11T04:30:34.318Z,10.74
2019-05-11T04:33:06.000Z,11.46
2019-05-11T04:35:37.123Z,11.93
2019-05-11T04:38:07.786Z,11.74
2019-05-11T04:40:38.561Z,11.25
2019-05-11T04:43:09.627Z,10.97
2019-05-11T04:45:40.418Z,10.90
2019-05-11T04:48:11.141Z,10.96
2019-05-11T04:50:41.956Z,11.20
2019-05-11T04:53:12.623Z,11.33
2019-05-11T04:55:43.292Z,11.54
2019-05-11T04:58:14.078Z,11.56
2019-05-11T05:00:44.743Z,11.79
2019-05-11T05:03:15.443Z,12.12
2019-05-11T05:05:46.441Z,12.24
2019-05-11T05:08:21.226Z,12.26
2019-05-11T05:10:52.401Z,12.23
2019-05-11T05:13:29.569Z,12.33
2019-05-11T05:15:56.859Z,12.01
2019-05-11T05:18:27.854Z,11.96
2019-05-11T05:20:59.589Z,11.70
2019-05-11T05:23:30.325Z,11.77
2019-05-11T05:26:01.324Z,11.75
2019-05-11T05:28:32.019Z,12.04
2019-05-11T05:31:02.681Z,12.16
2019-05-11T05:33:33.695Z,12.22
2019-05-11T05:36:05.192Z,12.32
2019-05-11T05:38:36.220Z,12.31
2019-05-11T05:41:06.929Z,12.43
2019-05-11T05:43:38.058Z,12.49
2019-05-11T05:46:09.123Z,12.28
2019-05-11T05:48:40.155Z,12.45
2019-05-11T05:51:10.842Z,12.49
2019-05-11T05:53:41.910Z,12.54
2019-05-11T05:56:12.659Z,12.38
2019-05-11T05:58:43.348Z,12.24
2019-05-11T06:01:14.025Z,12.20
2019-05-11T06:03:45.014Z,12.38
2019-05-11T06:06:16.090Z,12.47
2019-05-11T06:08:46.782Z,12.42
2019-05-11T06:11:17.859Z,12.52
2019-05-11T06:13:48.893Z,12.51
2019-05-11T06:16:19.880Z,12.52
2019-05-11T06:18:50.635Z,12.67
2019-05-11T06:21:21.293Z,12.80
2019-05-11T06:23:51.996Z,12.85
2019-05-11T06:26:22.660Z,12.94
2019-05-11T06:28:53.712Z,13.08
2019-05-11T06:31:24.405Z,13.37
2019-05-11T06:33:55.151Z,13.65
2019-05-11T06:36:25.822Z,13.89
2019-05-11T06:38:56.513Z,14.17
2019-05-11T06:41:27.491Z,14.66
2019-05-11T06:44:01.806Z,14.81
2019-05-11T06:46:34.702Z,14.95
2019-05-11T06:49:03.594Z,14.75
2019-05-11T06:51:35.528Z,14.63
2019-05-11T06:54:06.204Z,14.44
2019-05-11T06:56:36.873Z,14.39
2019-05-11T06:59:07.545Z,14.41
2019-05-11T07:01:38.385Z,14.57
2019-05-11T07:04:09.395Z,14.77
2019-05-11T07:06:40.266Z,14.75
2019-05-11T07:09:10.914Z,14.78
2019-05-11T07:11:41.929Z,14.62
2019-05-11T07:14:20.503Z,14.81
2019-05-11T07:16:45.572Z,14.73
2019-05-11T07:19:16.666Z,14.65
2019-05-11T07:21:47.572Z,14.67
2019-05-11T07:24:18.580Z,14.80
2019-05-11T07:26:49.251Z,14.80
2019-05-11T07:29:19.911Z,14.88
2019-05-11T07:31:50.851Z,14.90
2019-05-11T07:34:21.511Z,14.89
2019-05-11T07:36:52.475Z,14.81
2019-05-11T07:39:23.150Z,14.74
2019-05-11T07:41:53.828Z,14.65
2019-05-11T07:44:37.629Z,14.74
2019-05-11T07:46:58.731Z,14.66
2019-05-11T07:49:29.856Z,14.59
2019-05-11T07:52:00.519Z,14.68
2019-05-11T07:54:31.208Z,14.66
2019-05-11T07:57:02.501Z,14.59
2019-05-11T07:59:33.411Z,14.57
2019-05-11T08:02:04.348Z,14.43
2019-05-11T08:04:35.010Z,14.43
2019-05-11T08:07:07.722Z,14.39
2019-05-11T08:09:38.516Z,14.41
2019-05-11T08:12:09.434Z,14.35
2019-05-11T08:14:56.578Z,14.32
2019-05-11T08:17:12.859Z,13.95
2019-05-11T08:19:43.543Z,13.89
2019-05-11T08:22:14.681Z,13.73
2019-05-11T08:24:48.005Z,13.71
2019-05-11T08:27:18.785Z,13.67
2019-05-11T08:29:49.516Z,13.66
2019-05-11T08:32:20.454Z,13.66
2019-05-11T08:34:51.211Z,13.64
2019-05-11T08:37:21.900Z,13.65
2019-05-11T08:39:52.573Z,13.65
2019-05-11T08:42:23.232Z,13.69
2019-05-11T08:44:54.624Z,13.71
2019-05-11T08:47:28.224Z,13.73
2019-05-11T08:49:59.061Z,13.56
2019-05-11T08:52:30.271Z,13.60
2019-05-11T08:55:01.198Z,13.59
2019-05-11T08:57:32.267Z,13.47
2019-05-11T09:00:03.037Z,13.42
2019-05-11T09:02:33.742Z,13.37
2019-05-11T09:05:05.088Z,13.41
2019-05-11T09:07:38.196Z,13.31
2019-05-11T09:10:09.284Z,13.21
2019-05-11T09:12:40.383Z,13.06
2019-05-11T09:15:11.293Z,13.06
2019-05-11T09:17:42.103Z,13.08
2019-05-11T09:20:14.470Z,12.99
2019-05-11T09:22:45.445Z,12.87
2019-05-11T09:25:18.331Z,12.79
2019-05-11T09:27:49.549Z,12.65
2019-05-11T09:30:20.376Z,12.68
2019-05-11T09:32:51.207Z,12.61
2019-05-11T09:35:23.285Z,12.45
2019-05-11T09:37:54.059Z,12.47
2019-05-11T09:40:24.783Z,12.40
2019-05-11T09:42:55.785Z,12.43
2019-05-11T09:45:27.823Z,12.48
2019-05-11T09:47:58.731Z,12.53
2019-05-11T09:50:29.486Z,12.57
2019-05-11T09:53:01.520Z,12.50
2019-05-11T09:55:32.465Z,12.42
2019-05-11T09:58:03.498Z,12.41
2019-05-11T10:00:34.776Z,12.46
2019-05-11T10:03:05.463Z,12.58
2019-05-11T10:05:38.317Z,12.47
2019-05-11T10:08:08.881Z,12.48
2019-05-11T10:10:39.865Z,12.47
2019-05-11T10:13:10.982Z,12.38
2019-05-11T10:15:42.007Z,12.35
2019-05-11T10:18:12.708Z,12.30
2019-05-11T10:20:43.457Z,12.29
2019-05-11T10:23:14.165Z,12.23
2019-05-11T10:25:45.155Z,12.19
2019-05-11T10:28:17.908Z,12.25
2019-05-11T10:30:51.276Z,12.28
2019-05-11T10:33:21.938Z,12.35
2019-05-11T10:35:52.639Z,12.47
2019-05-11T10:38:23.289Z,12.42
2019-05-11T10:40:54.257Z,12.33
2019-05-11T10:43:24.909Z,12.48
2019-05-11T10:45:55.844Z,12.40
2019-05-11T10:48:28.202Z,12.40
2019-05-11T10:50:59.012Z,12.79
2019-05-11T10:53:29.687Z,12.95
2019-05-11T10:56:00.801Z,13.05
2019-05-11T10:58:31.841Z,12.89
2019-05-11T11:01:02.828Z,12.92
2019-05-11T11:03:34.128Z,12.94
2019-05-11T11:06:04.817Z,13.03
2019-05-11T11:08:35.482Z,12.88
2019-05-11T11:11:08.142Z,12.80
2019-05-11T11:13:39.762Z,12.99
2019-05-11T11:16:10.436Z,12.99
2019-05-11T11:18:41.482Z,13.06
2019-05-11T11:21:12.412Z,13.15
2019-05-11T11:23:43.459Z,13.33
2019-05-11T11:26:14.394Z,13.17
2019-05-11T11:28:47.809Z,13.11
2019-05-11T11:31:18.919Z,13.06
2019-05-11T11:33:49.670Z,13.13
2019-05-11T11:36:20.335Z,13.03
2019-05-11T11:38:51.345Z,13.18
2019-05-11T11:41:22.610Z,13.24
2019-05-11T11:43:53.634Z,13.32
2019-05-11T11:46:24.697Z,13.34
2019-05-11T11:48:57.953Z,13.29
2019-05-11T11:51:28.688Z,13.28
2019-05-11T11:53:59.574Z,13.18
2019-05-11T11:56:30.573Z,13.20
2019-05-11T11:59:01.221Z,13.21
2019-05-11T12:01:31.915Z,13.26
2019-05-11T12:04:02.859Z,13.31
2019-05-11T12:06:33.525Z,13.38
2019-05-11T12:09:08.850Z,13.43
2019-05-11T12:11:39.463Z,13.52
2019-05-11T12:14:10.599Z,13.53
2019-05-11T12:16:41.271Z,13.55
2019-05-11T12:19:12.309Z,13.41
2019-05-11T12:21:43.979Z,13.42
2019-05-11T12:24:14.975Z,13.41
2019-05-11T12:26:48.080Z,13.35
2019-05-11T12:29:18.971Z,13.44
2019-05-11T12:31:49.806Z,13.35
2019-05-11T12:34:20.459Z,13.19
2019-05-11T12:36:52.759Z,13.17
2019-05-11T12:39:23.437Z,13.18
2019-05-11T12:41:54.121Z,13.27
2019-05-11T12:44:24.789Z,13.09
2019-05-11T12:46:58.160Z,13.15
2019-05-11T12:49:29.045Z,13.14
2019-05-11T12:52:00.237Z,13.08
2019-05-11T12:54:33.907Z,13.10
2019-05-11T12:57:03.651Z,13.10
2019-05-11T12:59:34.667Z,13.05
2019-05-11T13:02:08.158Z,13.05
2019-05-11T13:04:40.981Z,12.86
2019-05-11T13:07:11.623Z,12.82
2019-05-11T13:09:43.046Z,12.88
2019-05-11T13:12:13.707Z,12.99
2019-05-11T13:14:44.690Z,12.87
2019-05-11T13:17:15.756Z,12.92
2019-05-11T13:19:47.968Z,12.87
2019-05-11T13:22:19.227Z,12.98
2019-05-11T13:24:50.408Z,12.92
2019-05-11T13:27:21.505Z,12.97
2019-05-11T13:29:52.684Z,12.85
2019-05-11T13:32:24.826Z,12.85
2019-05-11T13:34:55.606Z,12.84
2019-05-11T13:37:28.276Z,12.86
2019-05-11T13:39:59.228Z,12.83
2019-05-11T13:42:30.317Z,12.88
2019-05-11T13:45:00.976Z,12.80
2019-05-11T13:47:32.033Z,12.89
2019-05-11T13:50:02.962Z,12.95
2019-05-11T13:52:34.011Z,13.01
2019-05-11T13:55:07.797Z,13.06
2019-05-11T13:57:39.899Z,13.14
2019-05-11T14:00:11.285Z,13.42
2019-05-11T14:02:42.348Z,13.62
2019-05-11T14:05:13.382Z,13.86
2019-05-11T14:07:48.267Z,13.96
2019-05-11T14:10:19.384Z,13.98
2019-05-11T14:12:50.512Z,14.08
2019-05-11T14:15:21.515Z,14.14
2019-05-11T14:20:25.255Z,14.14
2019-05-11T14:22:58.278Z,14.16
2019-05-11T14:25:29.818Z,14.10
2019-05-11T14:28:00.696Z,13.98
2019-05-11T14:30:31.690Z,13.79
2019-05-11T14:32:21.224Z,14.15
2019-05-11T14:33:02.720Z,13.64
2019-05-11T14:38:40.682Z,13.82
2019-05-11T14:41:11.909Z,14.14
2019-05-11T14:43:42.618Z,14.23
2019-05-11T14:46:13.665Z,14.38
2019-05-11T14:48:44.769Z,14.42
2019-05-11T14:51:18.040Z,14.46
2019-05-11T14:53:50.296Z,14.54
2019-05-11T14:56:21.374Z,14.71
2019-05-11T14:58:52.306Z,14.57
2019-05-11T15:01:23.479Z,14.47
2019-05-11T15:03:55.340Z,14.44
2019-05-11T15:06:27.919Z,14.69
2019-05-11T15:08:58.764Z,14.52
2019-05-11T15:11:29.838Z,14.57
2019-05-11T15:14:00.671Z,14.60
2019-05-11T15:16:31.645Z,14.56
2019-05-11T15:19:03.980Z,14.51
2019-05-11T15:21:35.647Z,14.38
2019-05-11T15:24:09.108Z,14.25
2019-05-11T15:26:40.459Z,14.23
2019-05-11T15:29:11.569Z,14.20
2019-05-11T15:31:42.516Z,14.10
2019-05-11T15:34:13.262Z,13.94
2019-05-11T15:36:44.302Z,13.95
2019-05-11T15:39:15.320Z,13.96
2019-05-11T15:41:47.927Z,13.90
2019-05-11T15:44:18.552Z,13.88
2019-05-11T15:46:49.316Z,13.79
2019-05-11T15:49:20.067Z,13.77
2019-05-11T15:51:51.215Z,13.80
2019-05-11T15:54:21.900Z,13.77
2019-05-11T15:56:52.862Z,13.72
2019-05-11T15:59:24.016Z,13.69
2019-05-11T16:01:54.816Z,13.83
2019-05-11T16:04:27.979Z,13.96
2019-05-11T16:07:00.150Z,14.22
2019-05-11T16:09:32.699Z,14.29
2019-05-11T16:12:03.419Z,14.27
2019-05-11T16:14:34.106Z,14.12
2019-05-11T16:17:04.814Z,13.90
2019-05-11T16:19:35.609Z,13.79
2019-05-11T16:22:10.064Z,13.57
2019-05-11T16:24:40.853Z,13.54
2019-05-11T16:27:12.032Z,13.47
2019-05-11T16:29:43.038Z,13.38
2019-05-11T16:32:14.071Z,13.28
2019-05-11T16:34:44.838Z,13.29
2019-05-11T16:37:18.227Z,13.24
2019-05-11T16:39:49.520Z,13.30
2019-05-11T16:42:20.693Z,13.36
2019-05-11T16:44:51.829Z,13.42
2019-05-11T16:47:22.502Z,13.32
2019-05-11T16:49:53.178Z,13.24
2019-05-11T16:52:24.286Z,13.16
2019-05-11T16:54:54.996Z,13.10
2019-05-11T16:57:26.022Z,13.17
2019-05-11T16:59:58.456Z,13.08
2019-05-11T17:02:30.456Z,13.12
2019-05-11T17:05:01.933Z,13.03
2019-05-11T17:07:32.950Z,12.97
2019-05-11T17:10:05.543Z,12.88
2019-05-11T17:12:38.555Z,12.83
2019-05-11T17:15:10.917Z,12.81
2019-05-11T17:17:41.944Z,12.85
2019-05-11T17:20:13.382Z,12.69
2019-05-11T17:22:44.720Z,12.59
2019-05-11T17:25:15.725Z,12.61
2019-05-11T17:27:48.644Z,12.68
2019-05-11T17:30:21.223Z,12.62
2019-05-11T17:32:53.404Z,12.59
2019-05-11T17:35:24.063Z,12.49
2019-05-11T17:37:55.064Z,12.57
2019-05-11T17:40:28.343Z,12.61
2019-05-11T17:43:00.027Z,12.57
2019-05-11T17:45:31.025Z,12.62
2019-05-11T17:48:01.734Z,12.62
2019-05-11T17:50:32.415Z,12.56
2019-05-11T17:53:03.561Z,12.66
2019-05-11T17:55:34.718Z,12.65
2019-05-11T17:58:08.523Z,12.74
2019-05-11T18:00:39.410Z,12.72
2019-05-11T18:03:11.500Z,12.75
2019-05-11T18:05:42.741Z,12.72
2019-05-11T18:08:14.343Z,12.63
2019-05-11T18:10:47.952Z,12.56
2019-05-11T18:13:19.799Z,12.61
2019-05-11T18:15:51.337Z,12.60
2019-05-11T18:18:24.007Z,12.61
2019-05-11T18:20:54.467Z,12.55
2019-05-11T18:23:25.254Z,12.56
2019-05-11T18:25:56.277Z,12.49
2019-05-11T18:28:28.996Z,12.47
2019-05-11T18:30:59.823Z,12.45
2019-05-11T18:33:30.868Z,12.46
2019-05-11T18:36:01.905Z,12.30
2019-05-11T18:38:32.611Z,12.22
2019-05-11T18:41:03.494Z,12.28
2019-05-11T18:43:34.388Z,12.17
2019-05-11T18:46:08.341Z,12.29
2019-05-11T18:48:39.967Z,12.20
2019-05-11T18:51:10.648Z,12.19
2019-05-11T18:53:41.871Z,12.06
2019-05-11T18:56:13.169Z,12.05
2019-05-11T18:58:43.851Z,12.03
2019-05-11T19:01:14.843Z,12.02
2019-05-11T19:03:47.849Z,11.96
2019-05-11T19:06:19.064Z,11.69
2019-05-11T19:08:50.096Z,11.77
2019-05-11T19:11:21.603Z,11.70
2019-05-11T19:13:52.301Z,11.61
2019-05-11T19:16:23.330Z,11.75
2019-05-11T19:18:54.155Z,11.76
2019-05-11T19:21:24.908Z,11.81
2019-05-11T19:23:58.011Z,11.57
2019-05-11T19:26:28.602Z,11.49
2019-05-11T19:29:00.773Z,11.57
2019-05-11T19:31:32.701Z,11.44
2019-05-11T19:34:03.681Z,11.55
2019-05-11T19:36:34.721Z,11.47
2019-05-11T19:39:08.910Z,11.37
2019-05-11T19:41:40.812Z,11.40
2019-05-11T19:44:12.042Z,11.29
2019-05-11T19:46:42.724Z,11.24
2019-05-11T19:49:13.710Z,11.33
2019-05-11T19:51:48.525Z,11.19
2019-05-11T19:54:18.833Z,11.28
2019-05-11T19:56:52.295Z,11.30
2019-05-11T19:59:22.620Z,11.30
2019-05-11T20:01:53.709Z,11.30
2019-05-11T20:04:25.057Z,11.18
2019-05-11T20:06:58.100Z,11.20
2019-05-11T20:09:28.489Z,11.22
2019-05-11T20:11:59.196Z,11.13
2019-05-11T20:14:30.269Z,11.11
2019-05-11T20:17:01.319Z,11.06
2019-05-11T20:19:32.338Z,10.99
2019-05-11T20:22:03.801Z,11.04
2019-05-11T20:24:35.877Z,11.09
2019-05-11T20:27:08.027Z,11.09
2019-05-11T20:29:39.028Z,11.05
2019-05-11T20:32:09.756Z,11.03
2019-05-11T20:34:40.531Z,11.14
2019-05-11T20:37:11.543Z,11.12
2019-05-11T20:39:42.605Z,11.04
2019-05-11T20:42:13.658Z,11.07
2019-05-11T20:44:44.739Z,10.94
2019-05-11T20:47:17.411Z,10.87
2019-05-11T20:49:48.288Z,10.93
2019-05-11T20:52:20.368Z,10.86
2019-05-11T20:54:51.827Z,10.84
2019-05-11T20:57:24.210Z,10.80
2019-05-11T20:59:54.909Z,10.68
2019-05-11T21:02:28.813Z,10.65
2019-05-11T21:05:00.446Z,10.73
2019-05-11T21:07:31.171Z,10.64
2019-05-11T21:10:02.350Z,10.60
2019-05-11T21:12:33.407Z,10.53
2019-05-11T21:15:06.773Z,10.49
2019-05-11T21:17:38.446Z,10.55
2019-05-11T21:20:11.237Z,10.51
2019-05-11T21:22:43.286Z,10.57
2019-05-11T21:25:14.620Z,10.45
2019-05-11T21:27:45.283Z,10.41
2019-05-11T21:30:18.512Z,10.50
2019-05-11T21:32:49.414Z,10.44
2019-05-11T21:35:21.186Z,10.40
2019-05-11T21:37:51.869Z,10.44
2019-05-11T21:40:23.151Z,10.38
2019-05-11T21:42:55.079Z,10.45
2019-05-11T21:45:25.750Z,10.37
2019-05-11T21:47:57.973Z,10.35
2019-05-11T21:50:48.149Z,10.24
2019-05-11T21:53:19.256Z,10.12
2019-05-11T21:55:50.254Z,10.31
2019-05-11T21:58:20.962Z,10.27
2019-05-11T22:00:51.935Z,10.26
2019-05-11T22:03:24.263Z,10.27
2019-05-11T22:05:55.217Z,10.24
2019-05-11T22:08:28.217Z,10.19
2019-05-11T22:11:00.012Z,10.24
2019-05-11T22:13:31.221Z,10.11
2019-05-11T22:16:02.273Z,10.20
2019-05-11T22:18:32.956Z,10.22
2019-05-11T22:21:03.935Z,10.21
2019-05-11T22:23:35.223Z,10.16
2019-05-11T22:26:07.769Z,10.18
2019-05-11T22:28:39.312Z,10.15
2019-05-11T22:31:10.213Z,10.20
2019-05-11T22:33:40.918Z,10.18
2019-05-11T22:36:11.855Z,10.23
2019-05-11T22:38:42.595Z,10.27
2019-05-11T22:41:13.721Z,10.31
2019-05-11T22:43:44.432Z,10.28
2019-05-11T22:46:17.746Z,10.18
2019-05-11T22:48:49.107Z,10.16
2019-05-11T22:51:20.154Z,10.05
2019-05-11T22:53:50.869Z,10.08
2019-05-11T22:56:21.564Z,10.12
2019-05-11T22:58:52.246Z,10.11
2019-05-11T23:01:23.251Z,10.03
2019-05-11T23:03:55.316Z,9.89
2019-05-11T23:06:26.011Z,9.77
2019-05-11T23:08:58.705Z,9.67
2019-05-11T23:11:29.890Z,9.65
2019-05-11T23:14:00.891Z,9.64
2019-05-11T23:16:31.629Z,9.49
2019-05-11T23:19:02.690Z,9.29
2019-05-11T23:21:33.639Z,9.24
2019-05-11T23:24:07.682Z,9.11
2019-05-11T23:26:38.739Z,8.78
2019-05-11T23:29:09.549Z,8.73
2019-05-11T23:31:40.552Z,8.56
2019-05-11T23:34:11.502Z,8.54
2019-05-11T23:36:42.182Z,8.42
2019-05-11T23:39:12.846Z,8.44
2019-05-11T23:41:43.670Z,8.42
2019-05-11T23:44:14.644Z,8.39
2019-05-11T23:46:47.708Z,8.36
2019-05-11T23:49:18.093Z,8.33
2019-05-11T23:51:49.287Z,8.26
2019-05-11T23:54:19.954Z,8.27
2019-05-11T23:56:52.175Z,8.19
2019-05-11T23:59:22.836Z,8.17
